San Diego, CA (92126)

5:32 PM PDT on July 24, 2016 (GMT -0700)
| | Change Station

Elev -9999 ft 0.00 °N, 0.00 °E | Updated

Partly Cloudy
Partly Cloudy
75 °F
Feels Like 75 °F
N
6
Wind Variable Wind from SW
Gusts mph

Today
High -- | Low -- °F
--% Chance of Precip.
Yesterday
High -- | Low -- °F
Precip. -- in
Pressure 29.87 in
Visibility 10.0 miles
Clouds Few 5000 ft
Few 20000 ft
Dew Point 63 °F
Humidity 67%
Rainfall --
Snow Depth Not available.
5:57 AM 7:52 PM
Waning Gibbous, 71% visible
METAR KNKX 242355Z 22008KT 10SM FEW050 FEW200 29/16 A2989 RMK AO2 SLP114 T02890156 10306 20267 57009
Pressure 29.87 in
Visibility 10.0 miles
Clouds Few 5000 ft
Few 20000 ft
Dew Point 63 °F
Humidity 67%
Rainfall --
Snow Depth Not available.
5:57 AM 7:52 PM
Waning Gibbous, 71% visible
METAR KNKX 242355Z 22008KT 10SM FEW050 FEW200 29/16 A2989 RMK AO2 SLP114 T02890156 10306 20267 57009

10-Day Weather Forecast

Almanac

Astronomy

Jul. 24, 2016 Rise Set
Actual Time
Civil Twilight
Nautical Twilight
Astronomical Twilight
Moon
Length of Visible Light
Length of Day
Tomorrow will be .
, % of the Moon is Illuminated

Today's Extremes

State Highs State Lows

Community

WunderPhotos

Upload Photos

1,927,214 photos uploaded!

WunderBlog® & News

Nearby

Air Quality

  Air Quality AQ Index Pollutant
Not available.

Snow Depth

Station Depth Elevation

Earthquake Activity

City Distance Mag. Time & Date
Minimum magnitude displayed is 2.5.

Coastal Water Temperatures

Place Temperature

Stations

Nearby Weather Stations

Station Location Temp. Windchill Dew Point Humidity Wind Precip. Elev Updated Type
                   

Watches & Warnings

There are currently no watches in effect.